createdAt,value
2019-04-07T00:02:14.446Z,16.30
2019-04-07T00:04:42.996Z,14.90
2019-04-07T00:07:12.071Z,15.00
2019-04-07T00:09:40.355Z,15.03
2019-04-07T00:12:08.655Z,14.57
2019-04-07T00:14:36.914Z,15.67
2019-04-07T00:17:05.712Z,14.87
2019-04-07T00:19:34.047Z,13.03
2019-04-07T00:22:02.313Z,13.30
2019-04-07T00:24:30.598Z,13.50
2019-04-07T00:26:58.857Z,14.07
2019-04-07T00:29:27.711Z,14.00
2019-04-07T00:31:56.144Z,14.53
2019-04-07T00:34:24.783Z,13.97
2019-04-07T00:36:53.641Z,12.50
2019-04-07T00:39:22.413Z,14.10
2019-04-07T00:41:50.820Z,13.62
2019-04-07T00:44:19.120Z,14.93
2019-04-07T00:46:47.656Z,13.03
2019-04-07T00:49:16.138Z,14.27
2019-04-07T00:51:44.411Z,14.43
2019-04-07T00:54:12.699Z,16.00
2019-04-07T00:56:41.185Z,14.93
2019-04-07T00:59:09.972Z,14.77
2019-04-07T01:01:38.318Z,15.20
2019-04-07T01:04:06.599Z,15.27
2019-04-07T01:06:34.850Z,16.23
2019-04-07T01:09:03.305Z,16.40
2019-04-07T01:11:32.090Z,15.93
2019-04-07T01:14:00.648Z,15.70
2019-04-07T01:16:29.410Z,16.33
2019-04-07T01:18:58.307Z,16.05
2019-04-07T01:21:26.561Z,16.80
2019-04-07T01:23:54.858Z,17.00
2019-04-07T01:26:23.120Z,14.73
2019-04-07T01:28:53.689Z,15.93
2019-04-07T01:31:22.467Z,16.00
2019-04-07T01:33:50.827Z,15.98
2019-04-07T01:36:19.082Z,15.97
2019-04-07T01:38:47.471Z,17.43
2019-04-07T01:41:34.059Z,17.53
2019-04-07T01:44:07.136Z,16.80
2019-04-07T01:46:43.210Z,16.17
2019-04-07T01:49:13.494Z,17.83
2019-04-07T01:51:43.375Z,16.43
2019-04-07T01:54:25.692Z,17.37
2019-04-07T01:57:07.885Z,16.57
2019-04-07T01:59:40.845Z,16.13
2019-04-07T02:02:26.863Z,16.10
2019-04-07T02:05:13.413Z,16.17
2019-04-07T02:07:43.651Z,14.93
2019-04-07T02:10:22.526Z,13.73
2019-04-07T02:12:53.101Z,13.43
2019-04-07T02:15:25.997Z,12.67
2019-04-07T02:18:02.618Z,13.57
2019-04-07T02:20:53.033Z,13.53
2019-04-07T02:23:39.375Z,13.53
2019-04-07T02:26:09.318Z,13.53
2019-04-07T02:28:48.388Z,13.27
2019-04-07T02:31:19.149Z,13.83
2019-04-07T02:34:05.600Z,13.43
2019-04-07T02:36:51.959Z,12.37
2019-04-07T02:39:34.669Z,13.80
2019-04-07T02:42:08.727Z,13.40
2019-04-07T02:44:48.276Z,12.23
2019-04-07T02:47:21.350Z,11.73
2019-04-07T02:50:07.879Z,12.43
2019-04-07T02:52:43.556Z,13.60
2019-04-07T02:55:14.379Z,12.80
2019-04-07T02:57:52.899Z,12.50
2019-04-07T03:00:25.487Z,13.07
2019-04-07T03:02:58.124Z,12.00
2019-04-07T03:05:40.434Z,12.87
2019-04-07T03:08:17.221Z,13.00
2019-04-07T03:10:50.078Z,12.17
2019-04-07T03:13:21.048Z,12.73
2019-04-07T03:15:54.590Z,12.10
2019-04-07T03:18:30.137Z,13.43
2019-04-07T03:21:19.649Z,12.43
2019-04-07T03:23:52.972Z,12.73
2019-04-07T03:26:42.460Z,12.67
2019-04-07T03:29:16.081Z,12.53
2019-04-07T03:32:02.936Z,12.53
2019-04-07T03:34:35.685Z,12.73
2019-04-07T03:37:26.235Z,13.23
2019-04-07T03:39:40.971Z,13.55
2019-04-07T03:44:54.930Z,14.27
2019-04-07T03:47:25.938Z,17.90
2019-04-07T03:49:59.709Z,17.50
2019-04-07T03:52:35.595Z,17.47
2019-04-07T03:55:22.823Z,20.00
2019-04-07T03:58:01.726Z,17.63
2019-04-07T04:00:58.974Z,18.73
2019-04-07T04:03:41.013Z,19.70
2019-04-07T04:06:30.153Z,19.70
2019-04-07T04:11:51.913Z,18.80
2019-04-07T04:14:22.065Z,17.57
2019-04-07T04:16:51.951Z,18.23
2019-04-07T04:19:20.870Z,19.27
2019-04-07T04:21:49.186Z,21.27
2019-04-07T04:24:18.228Z,20.93
2019-04-07T04:26:47.541Z,23.38
2019-04-07T04:29:16.839Z,24.10
2019-04-07T04:31:45.913Z,22.13
2019-04-07T04:34:15.136Z,22.87
2019-04-07T04:36:43.463Z,23.07
2019-04-07T04:39:12.955Z,20.95
2019-04-07T04:41:42.604Z,20.10
2019-04-07T04:44:11.177Z,19.90
2019-04-07T04:46:39.417Z,16.33
2019-04-07T04:49:07.816Z,14.37
2019-04-07T04:51:39.270Z,17.77
2019-04-07T04:54:07.006Z,17.50
2019-04-07T04:56:36.146Z,16.75
2019-04-07T04:59:04.594Z,18.30
2019-04-07T05:01:33.116Z,16.50
2019-04-07T05:04:01.433Z,17.70
2019-04-07T05:06:29.738Z,19.07
2019-04-07T05:08:58.128Z,18.57
2019-04-07T05:11:26.486Z,20.00
2019-04-07T05:13:54.775Z,20.87
2019-04-07T05:16:23.137Z,20.80
2019-04-07T05:18:51.863Z,20.40
2019-04-07T05:21:20.714Z,21.23
2019-04-07T05:23:48.987Z,21.57
2019-04-07T05:26:17.258Z,21.40
2019-04-07T05:28:45.940Z,24.17
2019-04-07T05:31:14.507Z,24.50
2019-04-07T05:33:43.261Z,24.47
2019-04-07T05:36:12.201Z,22.07
2019-04-07T05:38:41.011Z,27.15
2019-04-07T05:41:10.740Z,26.00
2019-04-07T05:43:39.180Z,27.90
2019-04-07T05:46:08.313Z,27.00
2019-04-07T05:48:37.287Z,28.23
2019-04-07T05:51:05.582Z,27.77
2019-04-07T05:53:34.476Z,21.77
2019-04-07T05:56:03.157Z,21.85
2019-04-07T05:58:31.442Z,21.70
2019-04-07T06:01:00.255Z,24.07
2019-04-07T06:03:28.578Z,23.90
2019-04-07T06:05:57.211Z,25.37
2019-04-07T06:11:00.025Z,23.93
2019-04-07T06:13:25.575Z,26.57
2019-04-07T06:15:54.070Z,26.97
2019-04-07T06:18:22.878Z,30.27
2019-04-07T06:20:52.025Z,30.57
2019-04-07T06:23:24.270Z,24.23
2019-04-07T06:25:51.052Z,27.27
2019-04-07T06:28:19.419Z,27.48
2019-04-07T06:30:48.337Z,30.23
2019-04-07T06:33:17.491Z,26.50
2019-04-07T06:35:47.368Z,26.50
2019-04-07T06:38:16.628Z,24.83
2019-04-07T06:40:45.062Z,19.23
2019-04-07T06:43:14.562Z,25.02
2019-04-07T06:45:45.291Z,25.45
2019-04-07T06:48:14.396Z,21.33
2019-04-07T06:50:58.340Z,26.30
2019-04-07T06:53:31.270Z,25.53
2019-04-07T06:56:05.026Z,23.30
2019-04-07T06:58:41.132Z,26.90
2019-04-07T07:01:11.114Z,27.20
2019-04-07T07:03:57.594Z,24.17
2019-04-07T07:06:28.464Z,27.47
2019-04-07T07:09:02.036Z,27.73
2019-04-07T07:11:34.382Z,26.67
2019-04-07T07:14:12.373Z,27.13
2019-04-07T07:16:43.790Z,26.70
2019-04-07T07:22:15.851Z,26.90
2019-04-07T07:24:45.903Z,24.77
2019-04-07T07:27:12.980Z,24.23
2019-04-07T07:29:45.410Z,26.43
2019-04-07T07:32:11.580Z,25.33
2019-04-07T07:34:42.236Z,26.02
2019-04-07T07:37:10.618Z,28.27
2019-04-07T07:39:41.857Z,26.43
2019-04-07T07:42:09.395Z,25.93
2019-04-07T07:44:39.608Z,25.20
2019-04-07T07:47:07.988Z,24.57
2019-04-07T07:49:40.081Z,23.03
2019-04-07T07:52:06.250Z,27.33
2019-04-07T07:54:35.229Z,22.70
2019-04-07T07:57:03.569Z,25.10
2019-04-07T07:59:37.779Z,22.63
2019-04-07T08:02:02.444Z,24.90
2019-04-07T08:04:30.809Z,22.52
2019-04-07T08:06:59.084Z,25.20
2019-04-07T08:09:28.238Z,24.80
2019-04-07T08:11:56.603Z,25.20
2019-04-07T08:14:29.339Z,24.30
2019-04-07T08:17:00.211Z,22.77
2019-04-07T08:19:29.655Z,23.50
2019-04-07T08:21:58.415Z,24.50
2019-04-07T08:24:27.254Z,22.98
2019-04-07T08:26:57.121Z,24.50
2019-04-07T08:29:25.795Z,25.33
2019-04-07T08:31:55.393Z,24.00
2019-04-07T08:36:51.961Z,19.77
2019-04-07T08:39:25.191Z,23.30
2019-04-07T08:41:50.704Z,20.90
2019-04-07T08:44:19.018Z,21.05
2019-04-07T08:46:47.355Z,22.33
2019-04-07T08:49:15.612Z,21.13
2019-04-07T08:51:43.938Z,19.07
2019-04-07T08:54:15.730Z,20.77
2019-04-07T08:56:42.376Z,18.53
2019-04-07T08:59:12.967Z,19.33
2019-04-07T09:01:40.673Z,19.70
2019-04-07T09:04:09.457Z,19.17
2019-04-07T09:06:38.525Z,20.33
2019-04-07T09:09:08.094Z,19.15
2019-04-07T09:11:39.104Z,19.95
2019-04-07T09:14:07.981Z,20.10
2019-04-07T09:16:41.630Z,20.87
2019-04-07T09:19:14.943Z,18.50
2019-04-07T09:21:50.141Z,18.27
2019-04-07T09:24:19.063Z,18.73
2019-04-07T09:26:52.417Z,18.43
2019-04-07T09:29:24.970Z,19.23
2019-04-07T09:31:57.570Z,18.53
2019-04-07T09:34:33.549Z,20.17
2019-04-07T09:37:06.909Z,18.07
2019-04-07T09:39:58.509Z,17.97
2019-04-07T09:42:26.785Z,19.20
2019-04-07T09:44:57.410Z,20.70
2019-04-07T09:47:27.411Z,19.00
2019-04-07T09:50:00.475Z,20.40
2019-04-07T09:52:37.041Z,21.93
2019-04-07T09:55:16.885Z,20.63
2019-04-07T10:00:50.205Z,19.47
2019-04-07T10:03:19.948Z,19.67
2019-04-07T10:05:52.943Z,20.00
2019-04-07T10:08:26.080Z,18.37
2019-04-07T10:10:59.424Z,17.43
2019-04-07T10:13:29.648Z,17.97
2019-04-07T10:16:15.516Z,15.63
2019-04-07T10:18:57.747Z,18.93
2019-04-07T10:21:39.769Z,16.42
2019-04-07T10:24:13.004Z,18.33
2019-04-07T10:26:45.670Z,14.80
2019-04-07T10:29:31.908Z,18.35
2019-04-07T10:32:07.838Z,17.25
2019-04-07T10:34:38.660Z,16.12
2019-04-07T10:37:14.653Z,16.25
2019-04-07T10:39:48.389Z,16.55
2019-04-07T10:42:21.901Z,16.70
2019-04-07T10:45:03.788Z,17.35
2019-04-07T10:47:33.746Z,14.87
2019-04-07T10:50:18.319Z,16.62
2019-04-07T10:53:03.773Z,14.15
2019-04-07T10:55:45.669Z,14.68
2019-04-07T10:58:18.020Z,13.55
2019-04-07T11:00:50.778Z,14.43
2019-04-07T11:03:23.007Z,13.43
2019-04-07T11:05:59.345Z,13.65
2019-04-07T11:08:45.465Z,11.55
2019-04-07T11:11:33.387Z,14.15
2019-04-07T11:14:12.069Z,12.18
2019-04-07T11:16:45.213Z,12.80
2019-04-07T11:19:32.196Z,14.75
2019-04-07T11:22:09.050Z,14.70
2019-04-07T11:24:41.769Z,15.13
2019-04-07T11:27:14.788Z,13.70
2019-04-07T11:29:53.926Z,16.85
2019-04-07T11:35:01.561Z,16.30
2019-04-07T11:37:47.278Z,15.40
2019-04-07T11:40:20.961Z,13.48
2019-04-07T11:42:51.017Z,15.65
2019-04-07T11:45:23.731Z,14.93
2019-04-07T11:47:54.440Z,14.55
2019-04-07T11:50:24.414Z,14.93
2019-04-07T11:52:57.307Z,14.90
2019-04-07T11:55:44.265Z,14.20
2019-04-07T11:58:23.021Z,13.75
2019-04-07T12:00:57.208Z,16.15
2019-04-07T12:03:35.856Z,15.75
2019-04-07T12:06:08.664Z,14.85
2019-04-07T12:08:54.684Z,15.60
2019-04-07T12:11:31.053Z,16.37
2019-04-07T12:16:55.042Z,17.30
2019-04-07T12:19:26.177Z,15.78
2019-04-07T12:22:14.136Z,14.70
2019-04-07T12:24:50.195Z,14.90
2019-04-07T12:27:26.989Z,14.70
2019-04-07T12:29:57.016Z,15.58
2019-04-07T12:32:35.967Z,14.58
2019-04-07T12:35:07.402Z,15.43
2019-04-07T12:37:49.136Z,14.23
2019-04-07T12:40:22.892Z,18.57
2019-04-07T12:43:02.509Z,16.48
2019-04-07T12:48:19.877Z,15.48
2019-04-07T12:50:50.920Z,15.20
2019-04-07T12:53:25.143Z,15.48
2019-04-07T12:56:09.999Z,15.23
2019-04-07T12:58:44.071Z,16.50
2019-04-07T13:01:17.658Z,16.17
2019-04-07T13:03:52.526Z,14.47
2019-04-07T13:06:29.088Z,15.18
2019-04-07T13:09:01.538Z,16.10
2019-04-07T13:11:49.673Z,15.45
2019-04-07T13:14:25.664Z,14.75
2019-04-07T13:17:12.621Z,15.83
2019-04-07T13:19:46.707Z,16.00
2019-04-07T13:22:15.072Z,17.05
2019-04-07T13:24:57.011Z,14.87
2019-04-07T13:27:41.543Z,16.30
2019-04-07T13:30:22.522Z,14.68
2019-04-07T13:33:11.345Z,15.25
2019-04-07T13:35:57.526Z,17.37
2019-04-07T13:38:43.049Z,18.17
2019-04-07T13:41:17.755Z,16.90
2019-04-07T13:43:54.773Z,19.27
2019-04-07T13:46:31.777Z,17.73
2019-04-07T13:49:02.817Z,16.40
2019-04-07T13:51:33.101Z,17.03
2019-04-07T13:54:21.200Z,16.93
2019-04-07T13:56:54.776Z,17.37
2019-04-07T13:59:39.299Z,17.43
2019-04-07T14:02:29.610Z,16.60
2019-04-07T14:05:15.559Z,17.50
2019-04-07T14:08:01.337Z,17.57
2019-04-07T14:10:40.471Z,17.47
2019-04-07T14:13:10.501Z,18.32
2019-04-07T14:15:40.937Z,18.17
2019-04-07T14:18:20.171Z,16.50
2019-04-07T14:20:56.224Z,17.17
2019-04-07T14:23:31.643Z,18.43
2019-04-07T14:26:02.340Z,16.60
2019-04-07T14:28:38.988Z,15.87
2019-04-07T14:31:15.268Z,17.30
2019-04-07T14:33:45.919Z,16.07
2019-04-07T14:36:22.711Z,17.23
2019-04-07T14:39:05.269Z,15.93
2019-04-07T14:41:35.692Z,18.47
2019-04-07T14:44:22.550Z,15.97
2019-04-07T14:47:00.077Z,18.13
2019-04-07T14:49:33.326Z,18.40
2019-04-07T14:52:06.725Z,17.57
2019-04-07T14:54:46.454Z,16.87
2019-04-07T14:57:16.962Z,17.75
2019-04-07T14:59:56.322Z,18.17
2019-04-07T15:02:24.835Z,17.52
2019-04-07T15:04:55.087Z,16.87
2019-04-07T15:07:32.452Z,15.78
2019-04-07T15:10:03.216Z,17.77
2019-04-07T15:12:33.881Z,17.13
2019-04-07T15:15:08.443Z,18.00
2019-04-07T15:17:32.945Z,17.23
2019-04-07T15:20:01.491Z,15.70
2019-04-07T15:22:31.075Z,16.13
2019-04-07T15:25:00.165Z,17.33
2019-04-07T15:27:28.660Z,19.50
2019-04-07T15:29:57.748Z,17.10
2019-04-07T15:32:28.611Z,17.75
2019-04-07T15:34:56.165Z,36.13
2019-04-07T15:37:25.112Z,16.23
2019-04-07T15:39:53.399Z,17.50
2019-04-07T15:42:33.915Z,17.20
2019-04-07T15:44:52.009Z,18.07
2019-04-07T15:47:21.901Z,17.13
2019-04-07T15:49:51.337Z,18.73
2019-04-07T15:52:20.653Z,18.05
2019-04-07T15:54:49.042Z,19.15
2019-04-07T15:57:20.209Z,19.57
2019-04-07T15:59:48.077Z,17.40
2019-04-07T16:02:17.221Z,20.37
2019-04-07T16:04:45.596Z,18.55
2019-04-07T16:07:14.590Z,20.13
2019-04-07T16:09:50.805Z,21.45
2019-04-07T16:12:13.447Z,21.23
2019-04-07T16:14:44.266Z,18.97
2019-04-07T16:17:12.127Z,20.33
2019-04-07T16:19:44.066Z,19.30
2019-04-07T16:22:12.494Z,19.10
2019-04-07T16:24:41.586Z,19.73
2019-04-07T16:27:10.890Z,20.15
2019-04-07T16:29:39.816Z,20.07
2019-04-07T16:32:08.228Z,19.00
2019-04-07T16:34:38.797Z,18.13
2019-04-07T16:37:06.508Z,17.63
2019-04-07T16:39:35.016Z,18.17
2019-04-07T16:42:03.272Z,17.80
2019-04-07T16:44:31.881Z,17.73
2019-04-07T16:47:03.732Z,18.73
2019-04-07T16:49:30.430Z,17.90
2019-04-07T16:52:01.926Z,19.27
2019-04-07T16:54:29.074Z,17.47
2019-04-07T16:56:58.396Z,18.40
2019-04-07T16:59:27.540Z,16.37
2019-04-07T17:01:55.927Z,18.05
2019-04-07T17:04:28.147Z,16.97
2019-04-07T17:07:02.383Z,17.43
2019-04-07T17:09:28.229Z,15.33
2019-04-07T17:11:56.727Z,15.70
2019-04-07T17:14:25.766Z,16.65
2019-04-07T17:16:55.821Z,16.10
2019-04-07T17:19:26.643Z,16.65
2019-04-07T17:21:55.510Z,16.13
2019-04-07T17:24:27.204Z,15.45
2019-04-07T17:26:54.135Z,15.47
2019-04-07T17:29:23.521Z,16.30
2019-04-07T17:31:52.179Z,17.12
2019-04-07T17:34:20.574Z,21.77
2019-04-07T17:36:53.098Z,17.43
2019-04-07T17:39:26.191Z,20.27
2019-04-07T17:41:56.072Z,20.13
2019-04-07T17:44:35.136Z,20.73
2019-04-07T17:47:21.236Z,18.32
2019-04-07T17:49:51.160Z,18.37
2019-04-07T17:52:26.512Z,19.50
2019-04-07T17:55:12.759Z,16.83
2019-04-07T17:57:52.071Z,19.60
2019-04-07T18:00:38.378Z,16.73
2019-04-07T18:03:11.632Z,19.10
2019-04-07T18:05:50.880Z,21.60
2019-04-07T18:11:00.732Z,21.53
2019-04-07T18:13:50.194Z,23.37
2019-04-07T18:16:24.841Z,18.90
2019-04-07T18:19:14.145Z,22.07
2019-04-07T18:22:02.444Z,16.87
2019-04-07T18:24:32.404Z,28.93
2019-04-07T18:27:15.914Z,32.10
2019-04-07T18:30:04.067Z,19.70
2019-04-07T18:32:37.402Z,18.07
2019-04-07T18:35:08.431Z,19.77
2019-04-07T18:37:42.173Z,18.03
2019-04-07T18:40:29.519Z,17.93
2019-04-07T18:43:16.625Z,21.60
2019-04-07T18:46:01.870Z,19.10
2019-04-07T18:48:47.805Z,19.25
2019-04-07T18:51:23.683Z,18.57
2019-04-07T18:53:58.475Z,18.70
2019-04-07T18:56:44.017Z,18.03
2019-04-07T18:59:31.275Z,17.00
2019-04-07T19:02:01.397Z,21.30
2019-04-07T19:04:47.824Z,23.60
2019-04-07T19:07:21.295Z,22.57
2019-04-07T19:10:05.102Z,23.37
2019-04-07T19:12:35.043Z,26.03
2019-04-07T19:15:14.427Z,23.65
2019-04-07T19:17:47.120Z,24.80
2019-04-07T19:20:26.911Z,23.03
2019-04-07T19:25:35.634Z,23.83
2019-04-07T19:28:11.414Z,25.27
2019-04-07T19:30:59.154Z,25.60
2019-04-07T19:33:45.393Z,24.03
2019-04-07T19:36:24.045Z,25.33
2019-04-07T19:42:04.588Z,25.20
2019-04-07T19:44:42.482Z,27.90
2019-04-07T19:47:11.971Z,25.70
2019-04-07T19:49:47.632Z,27.67
2019-04-07T19:52:21.633Z,24.70
2019-04-07T19:55:06.663Z,25.13
2019-04-07T19:57:42.742Z,19.57
2019-04-07T20:00:30.731Z,19.53
2019-04-07T20:03:08.780Z,17.33
2019-04-07T20:05:48.794Z,17.90
2019-04-07T20:08:20.283Z,17.50
2019-04-07T20:10:54.893Z,18.30
2019-04-07T20:13:34.433Z,17.03
2019-04-07T20:16:08.193Z,15.63
2019-04-07T20:18:39.823Z,16.63
2019-04-07T20:21:19.826Z,13.60
2019-04-07T20:23:52.878Z,14.80
2019-04-07T20:26:22.894Z,12.57
2019-04-07T20:29:05.187Z,11.67
2019-04-07T20:31:39.011Z,11.13
2019-04-07T20:34:09.784Z,9.80
2019-04-07T20:36:55.995Z,12.50
2019-04-07T20:39:29.487Z,12.13
2019-04-07T20:41:57.552Z,13.30
2019-04-07T20:44:36.621Z,15.17
2019-04-07T20:47:23.042Z,13.25
2019-04-07T20:50:10.728Z,12.43
2019-04-07T20:53:08.423Z,12.30
2019-04-07T20:55:41.342Z,13.10
2019-04-07T20:58:23.790Z,11.20
2019-04-07T21:00:58.549Z,12.10
2019-04-07T21:03:40.426Z,11.10
2019-04-07T21:06:30.187Z,11.80
2019-04-07T21:09:17.358Z,11.50
2019-04-07T21:11:50.096Z,13.47
2019-04-07T21:14:20.813Z,12.23
2019-04-07T21:17:03.877Z,12.10
2019-04-07T21:19:49.674Z,12.00
2019-04-07T21:22:29.859Z,12.27
2019-04-07T21:25:05.641Z,11.77
2019-04-07T21:27:37.146Z,12.57
2019-04-07T21:30:27.274Z,12.63
2019-04-07T21:32:57.201Z,12.37
2019-04-07T21:35:35.088Z,11.57
2019-04-07T21:38:04.454Z,12.63
2019-04-07T21:40:42.302Z,11.43
2019-04-07T21:43:29.452Z,10.53
2019-04-07T21:46:05.157Z,11.33
2019-04-07T21:48:37.528Z,11.00
2019-04-07T21:51:15.544Z,11.50
2019-04-07T21:53:45.478Z,10.57
2019-04-07T21:56:15.717Z,12.90
2019-04-07T21:59:01.191Z,7.70
2019-04-07T22:01:46.311Z,9.63
2019-04-07T22:04:18.866Z,11.47
2019-04-07T22:06:48.604Z,12.17
2019-04-07T22:09:24.715Z,12.80
2019-04-07T22:11:54.684Z,9.73
2019-04-07T22:14:23.645Z,10.40
2019-04-07T22:16:51.905Z,11.43
2019-04-07T22:19:20.308Z,12.43
2019-04-07T22:21:52.968Z,11.93
2019-04-07T22:24:18.867Z,13.00
2019-04-07T22:26:49.901Z,10.03
2019-04-07T22:29:18.209Z,11.00
2019-04-07T22:31:48.158Z,10.65
2019-04-07T22:34:16.591Z,10.20
2019-04-07T22:36:47.534Z,9.73
2019-04-07T22:39:14.856Z,9.47
2019-04-07T22:41:44.210Z,9.80
2019-04-07T22:44:13.350Z,9.98
2019-04-07T22:46:41.700Z,8.70
2019-04-07T22:49:09.941Z,9.90
2019-04-07T22:51:38.233Z,9.70
2019-04-07T22:54:06.492Z,8.13
2019-04-07T22:56:38.128Z,9.37
2019-04-07T22:59:05.725Z,8.60
2019-04-07T23:01:34.286Z,9.85
2019-04-07T23:04:03.475Z,9.03
2019-04-07T23:06:31.906Z,9.33
2019-04-07T23:09:00.162Z,9.33
2019-04-07T23:11:28.459Z,10.90
2019-04-07T23:13:57.649Z,8.07
2019-04-07T23:16:25.927Z,9.68
2019-04-07T23:18:54.235Z,9.63
2019-04-07T23:21:23.412Z,10.30
2019-04-07T23:23:51.703Z,11.37
2019-04-07T23:26:20.216Z,10.17
2019-04-07T23:28:48.611Z,8.87
2019-04-07T23:31:17.261Z,8.93
2019-04-07T23:33:45.927Z,9.30
2019-04-07T23:36:14.173Z,10.33
2019-04-07T23:38:42.446Z,9.70
2019-04-07T23:41:11.652Z,9.87
2019-04-07T23:46:19.593Z,8.27
2019-04-07T23:48:38.192Z,9.60
2019-04-07T23:51:06.463Z,8.73
2019-04-07T23:54:11.807Z,8.10
2019-04-07T23:56:41.543Z,9.57
2019-04-07T23:59:10.357Z,8.87
